Alakanuk, AK (99554)

12:15 AM AKDT on September 22, 2014 (GMT -0800)
Emmonak | Change Station
CLOSE
Current Station
Airport
Location: Emmonak,
Elevation: 13 ft
Nearby Weather Stations

Elev 13 ft 62.79 °N, 164.49 °W | Updated 19 minutes ago

Overcast
Overcast
43 °F
Feels Like 41 °F
N
4
Wind Variable Wind from SW

Today
High -- | Low -- °F
--% Chance of Precip.
Yesterday
High -- | Low -- °F
Precip. -- in
8:42 AM 8:57 PM
Waning Crescent, 3% visible
Pressure 29.80 in
Visibility 10.0 miles
Clouds Mostly Cloudy 2600 ft
Overcast 8000 ft
Windchill 41 °F
Dew Point 36 °F
Humidity 76%
Rainfall 0.00 in
Snow Depth Not available.
UV 0 out of 12
Pollen Not available.
Air Quality Not available.
Flu Activity Not available.
METAR PAEM 220756Z AUTO 23003KT 10SM BKN026 OVC080 06/02 A2980 RMK AO1

More Conditions Fewer Conditions

Pressure 29.80 in
Visibility 10.0 miles
Clouds Mostly Cloudy 2600 ft
Overcast 8000 ft
Windchill 41 °F
Dew Point 36 °F
Humidity 76%
Rainfall 0.00 in
Snow Depth Not available.
UV 0 out of 12
Pollen Not available.
Air Quality Not available.
Flu Activity Not available.
METAR PAEM 220756Z AUTO 23003KT 10SM BKN026 OVC080 06/02 A2980 RMK AO1

More Conditions Fewer Conditions

10-Day Weather Forecast

Almanac

Astronomy

Sep. 22, 2014 Rise Set
Actual Time 8:42 AM AKDT 8:57 PM AKDT
Civil Twilight 7:56 AM AKDT 9:43 PM AKDT
Nautical Twilight 7:01 AM AKDT 10:38 PM AKDT
Astronomical Twilight 5:59 AM AKDT 11:39 PM AKDT
Moon 7:06 AM AKDT 8:18 PM AKDT
Length of Visible Light 13h 46m
Length of Day
12h 15m
Tomorrow will be 6m 3s shorter.
Waning Crescent, 3% of the Moon is Illuminated
Today
Waning Crescent
Sep 24
New
Oct 1
First Quarter
Oct 8
Full
Oct 15
Last Quarter

Community

WunderPhotos

Upload Photos

1,755,395 photos uploaded!

Nearby

Snow Depth

Station Depth Elevation
Rocky Point 6 in 500 ft
Eagle Summit 0 in 3650 ft
Coldfoot 0 in 1040 ft
Gobblers Knob 0 in 2030 ft
Upper Chena 1 in 2850 ft

Earthquake Activity

City Distance Mag. Time & Date
No recent earthquake activity has been reported nearby.
Minimum magnitude displayed is 2.5.

Coastal Water Temperatures

Place Temperature
No Stations Reporting

Nearby Weather Stations